createdAt,value
2019-01-29T00:02:19.254Z,0.60
2019-01-29T00:04:47.666Z,0.60
2019-01-29T00:07:16.167Z,0.40
2019-01-29T00:09:44.568Z,0.40
2019-01-29T00:12:13.014Z,0.30
2019-01-29T00:14:41.411Z,0.20
2019-01-29T00:17:09.846Z,0.20
2019-01-29T00:19:38.336Z,0.10
2019-01-29T00:22:06.760Z,0.10
2019-01-29T00:24:35.185Z,0.00
2019-01-29T00:27:03.693Z,0.00
2019-01-29T00:29:32.089Z,0.00
2019-01-29T00:32:02.086Z,0.00
2019-01-29T00:34:30.480Z,0.10
2019-01-29T00:36:58.930Z,0.10
2019-01-29T00:39:27.335Z,0.00
2019-01-29T00:41:55.736Z,0.00
2019-01-29T00:44:24.221Z,0.00
2019-01-29T00:46:52.642Z,0.00
2019-01-29T00:49:22.738Z,0.00
2019-01-29T00:51:51.262Z,0.10
2019-01-29T00:54:19.686Z,0.10
2019-01-29T00:56:48.115Z,0.20
2019-01-29T00:59:16.546Z,0.20
2019-01-29T01:01:44.985Z,0.20
2019-01-29T01:04:13.405Z,0.30
2019-01-29T01:07:01.912Z,0.30
2019-01-29T01:09:30.335Z,0.10
2019-01-29T01:11:58.756Z,0.10
2019-01-29T01:14:27.264Z,0.10
2019-01-29T01:16:55.686Z,0.10
2019-01-29T01:19:24.118Z,0.00
2019-01-29T01:21:52.597Z,-0.10
2019-01-29T01:24:21.035Z,-0.10
2019-01-29T01:26:49.576Z,0.00
2019-01-29T01:29:20.416Z,-0.10
2019-01-29T01:31:48.839Z,-0.10
2019-01-29T01:34:19.081Z,-0.20
2019-01-29T01:36:47.507Z,-0.20
2019-01-29T01:39:15.976Z,-0.20
2019-01-29T01:41:44.527Z,-0.20
2019-01-29T01:44:13.002Z,-0.10
2019-01-29T01:46:41.423Z,-0.10
2019-01-29T01:49:09.911Z,-0.10
2019-01-29T01:51:38.448Z,-0.10
2019-01-29T01:54:07.046Z,0.00
2019-01-29T01:56:35.474Z,0.00
2019-01-29T01:59:03.967Z,0.00
2019-01-29T02:01:32.442Z,-0.10
2019-01-29T02:04:00.923Z,0.00
2019-01-29T02:06:29.362Z,0.00
2019-01-29T02:08:57.853Z,0.00
2019-01-29T02:11:26.298Z,0.10
2019-01-29T02:13:54.776Z,0.20
2019-01-29T02:16:23.189Z,0.20
2019-01-29T02:18:51.659Z,0.30
2019-01-29T02:21:21.547Z,0.30
2019-01-29T02:23:50.017Z,0.30
2019-01-29T02:26:18.468Z,0.30
2019-01-29T02:28:46.919Z,0.30
2019-01-29T02:31:15.386Z,0.30
2019-01-29T02:33:43.860Z,0.30
2019-01-29T02:36:12.371Z,0.20
2019-01-29T02:38:40.831Z,0.20
2019-01-29T02:41:09.272Z,0.10
2019-01-29T02:43:37.746Z,0.20
2019-01-29T02:46:06.256Z,0.20
2019-01-29T02:48:34.744Z,0.30
2019-01-29T02:51:03.176Z,0.30
2019-01-29T02:53:31.621Z,0.20
2019-01-29T02:56:00.100Z,0.20
2019-01-29T02:58:28.544Z,0.30
2019-01-29T03:00:57.017Z,0.30
2019-01-29T03:03:25.526Z,0.30
2019-01-29T03:05:53.974Z,0.30
2019-01-29T03:08:22.412Z,0.20
2019-01-29T03:10:50.878Z,0.20
2019-01-29T03:13:19.354Z,0.20
2019-01-29T03:15:47.820Z,0.10
2019-01-29T03:18:16.323Z,0.10
2019-01-29T03:20:44.783Z,0.10
2019-01-29T03:23:13.348Z,0.10
2019-01-29T03:25:41.825Z,0.00
2019-01-29T03:28:10.318Z,0.10
2019-01-29T03:30:38.762Z,0.10
2019-01-29T03:33:07.226Z,0.10
2019-01-29T03:35:35.681Z,0.20
2019-01-29T03:38:04.189Z,0.20
2019-01-29T03:40:32.673Z,0.30
2019-01-29T03:43:01.220Z,0.20
2019-01-29T03:45:29.643Z,0.20
2019-01-29T03:47:58.074Z,0.20
2019-01-29T03:50:26.677Z,0.40
2019-01-29T03:52:55.141Z,0.40
2019-01-29T03:55:23.706Z,0.50
2019-01-29T03:57:52.156Z,0.50
2019-01-29T04:00:23.512Z,0.50
2019-01-29T04:02:52.040Z,0.60
2019-01-29T04:05:20.616Z,0.60
2019-01-29T04:07:49.127Z,0.60
2019-01-29T04:10:18.015Z,0.60
2019-01-29T04:12:46.541Z,0.70
2019-01-29T04:15:17.128Z,0.50
2019-01-29T04:17:45.696Z,0.50
2019-01-29T04:20:19.961Z,0.40
2019-01-29T04:22:48.851Z,0.30
2019-01-29T04:25:17.443Z,0.40
2019-01-29T04:27:45.887Z,0.50
2019-01-29T04:30:16.852Z,0.50
2019-01-29T04:32:45.391Z,0.60
2019-01-29T04:35:13.965Z,0.70
2019-01-29T04:37:42.397Z,0.80
2019-01-29T04:40:13.925Z,0.80
2019-01-29T04:42:42.423Z,0.90
2019-01-29T04:45:13.235Z,0.90
2019-01-29T04:47:41.687Z,0.90
2019-01-29T04:50:12.803Z,0.90
2019-01-29T04:52:41.296Z,0.90
2019-01-29T04:55:12.443Z,0.90
2019-01-29T04:57:40.937Z,1.00
2019-01-29T05:00:12.660Z,0.90
2019-01-29T05:02:41.066Z,0.90
2019-01-29T05:05:11.026Z,0.90
2019-01-29T05:07:39.493Z,0.80
2019-01-29T05:10:10.974Z,0.70
2019-01-29T05:12:39.418Z,0.60
2019-01-29T05:15:10.987Z,0.50
2019-01-29T05:17:39.391Z,0.50
2019-01-29T05:20:10.961Z,0.50
2019-01-29T05:22:39.381Z,0.50
2019-01-29T05:25:09.940Z,0.50
2019-01-29T05:27:38.337Z,0.40
2019-01-29T05:30:12.637Z,0.40
2019-01-29T05:32:41.115Z,0.30
2019-01-29T05:35:10.169Z,0.30
2019-01-29T05:37:38.577Z,0.20
2019-01-29T05:40:12.721Z,0.20
2019-01-29T05:42:41.184Z,0.20
2019-01-29T05:45:12.413Z,0.10
2019-01-29T05:47:40.832Z,0.10
2019-01-29T05:50:11.820Z,0.10
2019-01-29T05:52:40.291Z,0.00
2019-01-29T05:55:10.540Z,0.00
2019-01-29T05:57:38.963Z,0.00
2019-01-29T06:00:13.121Z,0.00
2019-01-29T06:02:41.565Z,0.00
2019-01-29T06:05:10.917Z,0.00
2019-01-29T06:07:39.341Z,0.00
2019-01-29T06:10:11.294Z,-0.10
2019-01-29T06:12:39.727Z,-0.10
2019-01-29T06:15:11.694Z,-0.10
2019-01-29T06:17:40.132Z,-0.10
2019-01-29T06:20:11.610Z,-0.10
2019-01-29T06:22:40.056Z,-0.10
2019-01-29T06:25:08.500Z,-0.10
2019-01-29T06:27:36.959Z,0.00
2019-01-29T06:30:11.063Z,0.00
2019-01-29T06:32:39.511Z,0.10
2019-01-29T06:35:16.455Z,0.10
2019-01-29T06:37:45.195Z,0.10
2019-01-29T06:40:16.354Z,0.20
2019-01-29T06:42:44.783Z,0.20
2019-01-29T06:45:18.751Z,0.20
2019-01-29T06:47:47.198Z,0.30
2019-01-29T06:50:20.574Z,0.40
2019-01-29T06:52:49.046Z,0.40
2019-01-29T06:55:19.244Z,0.50
2019-01-29T06:57:55.063Z,0.50
2019-01-29T07:00:29.020Z,0.60
2019-01-29T07:02:58.519Z,0.60
2019-01-29T07:05:27.025Z,0.60
2019-01-29T07:07:55.498Z,0.70
2019-01-29T07:10:25.671Z,0.70
2019-01-29T07:12:54.091Z,0.70
2019-01-29T07:15:45.093Z,0.80
2019-01-29T07:18:27.212Z,0.80
2019-01-29T07:20:55.897Z,0.80
2019-01-29T07:23:24.394Z,0.80
2019-01-29T07:25:52.832Z,0.80
2019-01-29T07:28:21.255Z,0.80
2019-01-29T07:30:49.670Z,0.80
2019-01-29T07:33:18.273Z,0.80
2019-01-29T07:35:46.689Z,0.90
2019-01-29T07:38:15.123Z,0.90
2019-01-29T07:40:43.541Z,1.00
2019-01-29T07:43:11.979Z,1.00
2019-01-29T07:45:40.409Z,1.00
2019-01-29T07:48:08.834Z,1.00
2019-01-29T07:50:37.234Z,1.00
2019-01-29T07:53:05.994Z,1.00
2019-01-29T07:55:34.484Z,1.00
2019-01-29T07:58:02.978Z,1.00
2019-01-29T08:00:31.392Z,1.00
2019-01-29T08:02:59.824Z,1.00
2019-01-29T08:05:28.218Z,1.10
2019-01-29T08:07:56.651Z,1.10
2019-01-29T08:10:25.075Z,1.10
2019-01-29T08:12:53.520Z,1.20
2019-01-29T08:15:22.765Z,1.20
2019-01-29T08:17:51.437Z,1.20
2019-01-29T08:20:19.935Z,1.20
2019-01-29T08:22:48.350Z,1.20
2019-01-29T08:25:16.828Z,1.20
2019-01-29T08:27:45.257Z,1.20
2019-01-29T08:30:15.891Z,1.30
2019-01-29T08:32:44.328Z,1.30
2019-01-29T08:35:16.695Z,1.30
2019-01-29T08:37:45.125Z,1.40
2019-01-29T08:40:15.468Z,1.40
2019-01-29T08:42:43.891Z,1.40
2019-01-29T08:45:19.820Z,1.40
2019-01-29T08:47:48.307Z,1.50
2019-01-29T08:50:24.764Z,1.50
2019-01-29T08:52:53.262Z,1.50
2019-01-29T08:55:21.957Z,1.50
2019-01-29T08:57:50.390Z,1.50
2019-01-29T09:00:22.940Z,1.50
2019-01-29T09:02:51.503Z,1.50
2019-01-29T09:05:19.921Z,1.50
2019-01-29T09:07:48.332Z,1.40
2019-01-29T09:10:20.984Z,1.40
2019-01-29T09:12:49.394Z,1.40
2019-01-29T09:15:19.149Z,1.40
2019-01-29T09:17:47.627Z,1.50
2019-01-29T09:20:20.727Z,1.50
2019-01-29T09:22:49.319Z,1.50
2019-01-29T09:25:21.015Z,1.60
2019-01-29T09:27:47.957Z,1.60
2019-01-29T09:30:22.718Z,1.60
2019-01-29T09:32:51.147Z,1.60
2019-01-29T09:35:19.609Z,1.60
2019-01-29T09:37:48.026Z,1.60
2019-01-29T09:40:21.937Z,1.60
2019-01-29T09:42:50.491Z,1.60
2019-01-29T09:45:20.043Z,1.60
2019-01-29T09:47:48.731Z,1.70
2019-01-29T09:50:24.058Z,1.60
2019-01-29T09:52:53.217Z,1.70
2019-01-29T09:55:29.481Z,1.70
2019-01-29T09:57:55.069Z,1.80
2019-01-29T10:00:37.393Z,1.80
2019-01-29T10:03:06.250Z,1.80
2019-01-29T10:05:34.666Z,1.80
2019-01-29T10:08:03.075Z,1.90
2019-01-29T10:10:31.481Z,1.90
2019-01-29T10:12:59.951Z,1.90
2019-01-29T10:15:31.086Z,1.90
2019-01-29T10:17:59.491Z,1.90
2019-01-29T10:20:28.346Z,1.90
2019-01-29T10:22:56.761Z,1.90
2019-01-29T10:25:25.257Z,2.00
2019-01-29T10:27:53.668Z,2.00
2019-01-29T10:30:24.842Z,1.90
2019-01-29T10:32:53.376Z,2.00
2019-01-29T10:35:24.153Z,2.10
2019-01-29T10:37:52.715Z,2.10
2019-01-29T10:40:23.570Z,2.00
2019-01-29T10:42:52.121Z,2.10
2019-01-29T10:45:22.383Z,2.10
2019-01-29T10:47:50.790Z,2.20
2019-01-29T10:50:24.966Z,2.30
2019-01-29T10:52:53.733Z,2.40
2019-01-29T10:55:46.930Z,2.50
2019-01-29T10:58:11.681Z,2.60
2019-01-29T11:00:42.960Z,2.70
2019-01-29T11:03:11.422Z,2.70
2019-01-29T11:05:40.403Z,2.80
2019-01-29T11:08:08.867Z,2.70
2019-01-29T11:10:37.376Z,2.70
2019-01-29T11:13:07.322Z,2.80
2019-01-29T11:15:38.479Z,2.80
2019-01-29T11:18:09.933Z,2.90
2019-01-29T11:20:38.532Z,2.90
2019-01-29T11:23:07.033Z,2.80
2019-01-29T11:25:35.519Z,2.80
2019-01-29T11:28:04.563Z,2.80
2019-01-29T11:30:33.331Z,3.00
2019-01-29T11:33:01.820Z,3.00
2019-01-29T11:35:30.252Z,3.10
2019-01-29T11:37:58.641Z,3.10
2019-01-29T11:40:31.797Z,3.10
2019-01-29T11:43:00.567Z,3.00
2019-01-29T11:45:35.038Z,3.00
2019-01-29T11:48:03.459Z,2.90
2019-01-29T11:50:31.903Z,2.90
2019-01-29T11:53:00.311Z,2.90
2019-01-29T11:55:28.876Z,2.90
2019-01-29T11:57:57.293Z,2.90
2019-01-29T12:00:30.258Z,2.80
2019-01-29T12:02:58.849Z,2.90
2019-01-29T12:05:27.259Z,2.90
2019-01-29T12:07:55.671Z,2.90
2019-01-29T12:10:24.155Z,3.00
2019-01-29T12:12:52.560Z,3.10
2019-01-29T12:15:21.915Z,3.20
2019-01-29T12:17:50.397Z,3.00
2019-01-29T12:20:20.163Z,3.10
2019-01-29T12:23:16.650Z,3.30
2019-01-29T12:25:54.465Z,3.20
2019-01-29T12:28:22.898Z,3.20
2019-01-29T12:30:51.441Z,3.20
2019-01-29T12:33:20.015Z,3.10
2019-01-29T12:35:48.501Z,3.00
2019-01-29T12:38:16.925Z,3.00
2019-01-29T12:40:45.401Z,3.10
2019-01-29T12:43:13.843Z,3.20
2019-01-29T12:45:42.320Z,3.30
2019-01-29T12:48:10.787Z,3.30
2019-01-29T12:50:40.953Z,3.30
2019-01-29T12:53:11.101Z,3.30
2019-01-29T12:55:39.597Z,3.20
2019-01-29T12:58:08.080Z,3.20
2019-01-29T13:00:38.556Z,3.30
2019-01-29T13:03:07.122Z,3.20
2019-01-29T13:05:35.598Z,3.20
2019-01-29T13:08:04.988Z,3.20
2019-01-29T13:10:33.508Z,3.20
2019-01-29T13:13:01.942Z,3.30
2019-01-29T13:15:32.396Z,3.50
2019-01-29T13:18:01.581Z,3.50
2019-01-29T13:20:30.416Z,3.50
2019-01-29T13:22:58.856Z,3.40
2019-01-29T13:25:27.343Z,3.20
2019-01-29T13:27:55.789Z,3.20
2019-01-29T13:30:35.485Z,3.20
2019-01-29T13:33:06.649Z,3.20
2019-01-29T13:35:36.986Z,3.20
2019-01-29T13:38:07.606Z,3.20
2019-01-29T13:40:36.348Z,3.10
2019-01-29T13:43:06.147Z,3.10
2019-01-29T13:45:34.681Z,3.30
2019-01-29T13:48:03.120Z,3.60
2019-01-29T13:50:35.004Z,3.90
2019-01-29T13:53:03.706Z,3.90
2019-01-29T13:55:32.275Z,3.90
2019-01-29T13:58:00.725Z,3.70
2019-01-29T14:00:31.561Z,3.70
2019-01-29T14:03:00.155Z,3.60
2019-01-29T14:05:28.632Z,3.50
2019-01-29T14:07:57.124Z,3.50
2019-01-29T14:10:25.561Z,3.60
2019-01-29T14:12:53.959Z,3.60
2019-01-29T14:15:37.397Z,3.80
2019-01-29T14:18:06.559Z,3.90
2019-01-29T14:20:35.072Z,3.80
2019-01-29T14:23:03.795Z,3.60
2019-01-29T14:25:32.247Z,3.50
2019-01-29T14:28:00.688Z,3.40
2019-01-29T14:30:30.683Z,3.30
2019-01-29T14:32:59.619Z,3.20
2019-01-29T14:35:28.117Z,3.20
2019-01-29T14:38:02.497Z,3.30
2019-01-29T14:40:32.835Z,3.40
2019-01-29T14:43:01.248Z,3.30
2019-01-29T14:45:31.290Z,3.30
2019-01-29T14:47:59.742Z,3.30
2019-01-29T14:50:28.764Z,3.20
2019-01-29T14:52:58.050Z,3.40
2019-01-29T14:55:28.707Z,3.50
2019-01-29T14:57:57.149Z,3.50
2019-01-29T15:00:37.650Z,3.50
2019-01-29T15:03:06.262Z,3.40
2019-01-29T15:05:34.666Z,3.70
2019-01-29T15:08:03.175Z,3.40
2019-01-29T15:10:32.297Z,3.20
2019-01-29T15:13:00.891Z,3.10
2019-01-29T15:15:33.406Z,3.10
2019-01-29T15:18:15.698Z,3.00
2019-01-29T15:20:44.111Z,2.90
2019-01-29T15:23:12.607Z,2.90
2019-01-29T15:25:41.156Z,2.80
2019-01-29T15:28:09.628Z,2.80
2019-01-29T15:30:38.067Z,2.60
2019-01-29T15:33:06.679Z,2.60
2019-01-29T15:35:35.160Z,2.50
2019-01-29T15:38:05.247Z,2.70
2019-01-29T15:40:33.710Z,2.60
2019-01-29T15:43:02.207Z,2.70
2019-01-29T15:45:30.891Z,2.70
2019-01-29T15:47:59.405Z,2.70
2019-01-29T15:50:31.042Z,2.70
2019-01-29T15:52:59.606Z,2.70
2019-01-29T15:55:28.074Z,2.60
2019-01-29T15:57:56.834Z,2.50
2019-01-29T16:00:30.913Z,2.50
2019-01-29T16:02:59.475Z,2.20
2019-01-29T16:05:29.931Z,2.20
2019-01-29T16:07:58.371Z,2.20
2019-01-29T16:10:39.475Z,2.10
2019-01-29T16:13:02.465Z,2.00
2019-01-29T16:15:31.046Z,2.10
2019-01-29T16:17:59.634Z,2.10
2019-01-29T16:20:28.072Z,1.90
2019-01-29T16:22:56.598Z,2.00
2019-01-29T16:25:30.791Z,2.00
2019-01-29T16:27:59.295Z,1.90
2019-01-29T16:30:35.334Z,1.80
2019-01-29T16:33:04.235Z,2.00
2019-01-29T16:35:37.107Z,2.00
2019-01-29T16:38:07.262Z,1.90
2019-01-29T16:40:38.373Z,1.70
2019-01-29T16:43:07.208Z,1.70
2019-01-29T16:45:38.711Z,1.60
2019-01-29T16:48:09.291Z,1.60
2019-01-29T16:50:37.946Z,1.50
2019-01-29T16:53:07.927Z,1.40
2019-01-29T16:55:36.353Z,1.30
2019-01-29T16:58:05.840Z,1.30
2019-01-29T17:00:36.377Z,1.20
2019-01-29T17:03:05.143Z,1.30
2019-01-29T17:05:33.688Z,1.20
2019-01-29T17:08:04.002Z,1.10
2019-01-29T17:10:35.528Z,1.10
2019-01-29T17:13:04.608Z,1.10
2019-01-29T17:15:35.050Z,1.00
2019-01-29T17:18:03.730Z,0.90
2019-01-29T17:20:43.488Z,0.80
2019-01-29T17:23:12.356Z,0.80
2019-01-29T17:25:41.131Z,0.70
2019-01-29T17:28:09.533Z,0.70
2019-01-29T17:30:45.056Z,0.60
2019-01-29T17:33:16.275Z,0.60
2019-01-29T17:35:44.843Z,0.60
2019-01-29T17:38:13.285Z,0.50
2019-01-29T17:40:42.332Z,0.50
2019-01-29T17:43:10.793Z,0.40
2019-01-29T17:45:42.151Z,0.50
2019-01-29T17:48:10.673Z,0.40
2019-01-29T17:50:41.520Z,0.40
2019-01-29T17:53:10.092Z,0.30
2019-01-29T17:55:39.934Z,0.30
2019-01-29T17:58:09.648Z,0.20
2019-01-29T18:00:39.771Z,0.30
2019-01-29T18:03:08.267Z,0.10
2019-01-29T18:05:36.952Z,0.00
2019-01-29T18:08:05.512Z,0.00
2019-01-29T18:10:33.941Z,-0.10
2019-01-29T18:13:02.444Z,-0.20
2019-01-29T18:15:31.898Z,-0.20
2019-01-29T18:18:00.332Z,-0.20
2019-01-29T18:20:28.925Z,-0.20
2019-01-29T18:22:57.361Z,-0.20
2019-01-29T18:25:25.873Z,-0.30
2019-01-29T18:28:01.382Z,-0.30
2019-01-29T18:30:28.218Z,-0.40
2019-01-29T18:32:56.982Z,-0.50
2019-01-29T18:35:25.380Z,-0.40
2019-01-29T18:37:53.789Z,-0.50
2019-01-29T18:40:28.371Z,-0.50
2019-01-29T18:42:56.780Z,-0.50
2019-01-29T18:45:25.218Z,-0.50
2019-01-29T18:47:53.632Z,-0.50
2019-01-29T18:50:22.185Z,-0.50
2019-01-29T18:52:50.594Z,-0.60
2019-01-29T18:55:19.104Z,-0.60
2019-01-29T18:57:47.525Z,-0.50
2019-01-29T19:00:18.650Z,-0.60
2019-01-29T19:02:47.137Z,-0.60
2019-01-29T19:05:16.524Z,-0.60
2019-01-29T19:07:45.040Z,-0.60
2019-01-29T19:10:16.863Z,-0.60
2019-01-29T19:12:49.711Z,-0.60
2019-01-29T19:15:19.663Z,-0.70
2019-01-29T19:17:48.259Z,-0.70
2019-01-29T19:20:19.611Z,-0.80
2019-01-29T19:22:48.151Z,-0.80
2019-01-29T19:25:17.281Z,-0.90
2019-01-29T19:27:45.759Z,-0.80
2019-01-29T19:30:22.900Z,-0.80
2019-01-29T19:32:51.315Z,-0.90
2019-01-29T19:35:39.086Z,-0.90
2019-01-29T19:38:07.482Z,-0.90
2019-01-29T19:40:36.020Z,-0.80
2019-01-29T19:43:04.494Z,-0.80
2019-01-29T19:45:34.616Z,-0.70
2019-01-29T19:48:04.487Z,-0.80
2019-01-29T19:50:33.367Z,-0.70
2019-01-29T19:53:01.801Z,-0.70
2019-01-29T19:55:30.512Z,-0.70
2019-01-29T19:58:08.819Z,-0.70
2019-01-29T20:00:32.571Z,-0.70
2019-01-29T20:03:01.056Z,-0.70
2019-01-29T20:05:29.635Z,-0.60
2019-01-29T20:07:58.231Z,-0.60
2019-01-29T20:10:26.939Z,-0.60
2019-01-29T20:12:55.444Z,-0.60
2019-01-29T20:15:25.424Z,-0.70
2019-01-29T20:17:55.908Z,-0.60
2019-01-29T20:20:33.051Z,-0.60
2019-01-29T20:23:07.712Z,-0.60
2019-01-29T20:25:31.744Z,-0.60
2019-01-29T20:28:00.176Z,-0.70
2019-01-29T20:30:31.710Z,-0.60
2019-01-29T20:33:00.141Z,-0.60
2019-01-29T20:35:28.644Z,-0.60
2019-01-29T20:37:57.036Z,-0.50
2019-01-29T20:40:25.549Z,-0.60
2019-01-29T20:42:53.951Z,-0.60
2019-01-29T20:45:22.396Z,-0.60
2019-01-29T20:47:52.630Z,-0.70
2019-01-29T20:50:27.174Z,-0.60
2019-01-29T20:52:55.668Z,-0.70
2019-01-29T20:55:24.255Z,-0.70
2019-01-29T20:57:52.673Z,-0.80
2019-01-29T21:00:24.251Z,-0.80
2019-01-29T21:02:52.663Z,-0.70
2019-01-29T21:05:21.102Z,-0.50
2019-01-29T21:07:49.787Z,-0.40
2019-01-29T21:10:22.866Z,-0.60
2019-01-29T21:12:51.290Z,-0.70
2019-01-29T21:15:21.851Z,-0.70
2019-01-29T21:17:50.471Z,-0.70
2019-01-29T21:20:21.134Z,-0.70
2019-01-29T21:22:49.545Z,-0.70
2019-01-29T21:25:17.973Z,-0.80
2019-01-29T21:27:46.551Z,-0.80
2019-01-29T21:30:18.740Z,-0.80
2019-01-29T21:32:47.146Z,-0.80
2019-01-29T21:35:15.572Z,-0.80
2019-01-29T21:37:44.040Z,-0.80
2019-01-29T21:40:14.540Z,-0.80
2019-01-29T21:42:42.986Z,-0.80
2019-01-29T21:45:16.951Z,-0.80
2019-01-29T21:47:46.035Z,-0.70
2019-01-29T21:50:17.032Z,-0.70
2019-01-29T21:52:45.488Z,-0.70
2019-01-29T21:55:15.508Z,-0.70
2019-01-29T21:57:43.928Z,-0.70
2019-01-29T22:00:30.570Z,-0.70
2019-01-29T22:02:58.995Z,-0.80
2019-01-29T22:05:27.631Z,-0.80
2019-01-29T22:07:57.645Z,-0.80
2019-01-29T22:10:26.446Z,-0.90
2019-01-29T22:12:54.872Z,-0.90
2019-01-29T22:15:24.605Z,-1.00
2019-01-29T22:17:53.027Z,-1.00
2019-01-29T22:20:25.694Z,-1.10
2019-01-29T22:23:13.570Z,-1.10
2019-01-29T22:25:42.029Z,-1.10
2019-01-29T22:28:10.647Z,-1.10
2019-01-29T22:30:40.856Z,-1.10
2019-01-29T22:33:10.187Z,-1.10
2019-01-29T22:35:38.747Z,-0.90
2019-01-29T22:38:07.255Z,-0.80
2019-01-29T22:40:35.782Z,-0.90
2019-01-29T22:43:04.964Z,-1.00
2019-01-29T22:45:33.408Z,-1.00
2019-01-29T22:48:04.407Z,-1.10
2019-01-29T22:50:37.122Z,-1.00
2019-01-29T22:53:06.133Z,-1.10
2019-01-29T22:55:34.530Z,-1.10
2019-01-29T22:58:03.335Z,-1.10
2019-01-29T23:00:51.559Z,-1.10
2019-01-29T23:03:28.835Z,-1.20
2019-01-29T23:06:00.353Z,-1.10
2019-01-29T23:08:32.669Z,-1.10
2019-01-29T23:11:00.808Z,-1.20
2019-01-29T23:13:29.232Z,-1.10
2019-01-29T23:15:57.873Z,-1.10
2019-01-29T23:18:26.268Z,-1.10
2019-01-29T23:20:54.669Z,-1.10
2019-01-29T23:23:23.097Z,-1.10
2019-01-29T23:25:51.562Z,-1.20
2019-01-29T23:28:20.095Z,-1.10
2019-01-29T23:30:48.515Z,-1.10
2019-01-29T23:33:16.952Z,-1.00
2019-01-29T23:35:45.370Z,-1.10
2019-01-29T23:38:13.803Z,-1.10
2019-01-29T23:40:42.214Z,-1.10
2019-01-29T23:43:10.665Z,-1.10
2019-01-29T23:45:39.066Z,-1.10
2019-01-29T23:48:07.507Z,-1.10
2019-01-29T23:50:35.904Z,-1.10
2019-01-29T23:53:04.821Z,-1.10
2019-01-29T23:55:33.320Z,-1.10
2019-01-29T23:58:01.747Z,-1.10
